Terminal Aerodrome Forecast
Issued by NWS

Home | Current Version | Previous Version | Text Only | Print | Product List | Glossary On
Versions: 1 2 3 4 5 6 7 8 9 10 11 12 13 14 15 16
234
FTUS43 KMPX 291720
TAFRNH
TAF
KRNH 291720Z 2918/3018 10008KT P6SM OVC150
     FM300000 11006KT P6SM SCT025 OVC050
     FM300300 07008KT P6SM -RA SCT025 OVC035
     FM301400 07011G17KT P6SM OVC015=

USA.gov is the U.S. government's official web portal to all federal, state and local government web resources and services.